createdAt,value
2023-02-25T00:02:58.111Z,2.1
2023-02-25T00:08:51.755Z,2.1
2023-02-25T00:14:45.175Z,2.1
2023-02-25T00:20:39.094Z,2
2023-02-25T00:26:41.618Z,2
2023-02-25T00:32:34.341Z,2
2023-02-25T00:38:32.711Z,1.9
2023-02-25T00:44:25.936Z,1.9
2023-02-25T00:50:10.364Z,1.9
2023-02-25T00:56:03.498Z,1.8
2023-02-25T01:02:02.830Z,1.8
2023-02-25T01:07:58.172Z,1.8
2023-02-25T01:13:52.276Z,1.7
2023-02-25T01:19:15.715Z,1.6
2023-02-25T01:24:52.772Z,1.6
2023-02-25T01:30:46.355Z,1.6
2023-02-25T01:36:40.928Z,1.6
2023-02-25T01:42:34.075Z,1.5
2023-02-25T01:48:27.284Z,1.4
2023-02-25T01:54:20.747Z,1.4
2023-02-25T02:00:13.918Z,1.3
2023-02-25T02:06:07.097Z,1.3
2023-02-25T02:12:00.768Z,1.3
2023-02-25T02:17:54.473Z,1.3
2023-02-25T02:23:47.528Z,1.3
2023-02-25T02:29:39.567Z,1.2
2023-02-25T02:35:17.249Z,1.2
2023-02-25T02:40:55.098Z,1.1
2023-02-25T02:46:48.311Z,1.1
2023-02-25T02:52:40.668Z,1.1
2023-02-25T02:58:18.374Z,1
2023-02-25T03:04:11.782Z,0.9
2023-02-25T03:09:49.976Z,0.9
2023-02-25T03:15:11.578Z,0.9
2023-02-25T03:20:49.717Z,0.9
2023-02-25T03:26:28.587Z,0.8
2023-02-25T03:32:05.740Z,0.8
2023-02-25T03:37:42.753Z,0.7
2023-02-25T03:43:20.250Z,0.6
2023-02-25T03:48:58.880Z,0.6
2023-02-25T03:54:21.009Z,0.5
2023-02-25T03:59:58.981Z,0.4
2023-02-25T04:05:52.882Z,0.4
2023-02-25T04:11:29.727Z,0.3
2023-02-25T04:16:51.898Z,0.3
2023-02-25T04:22:45.282Z,0.3
2023-02-25T04:28:07.323Z,0.3
2023-02-25T04:34:02.095Z,0.3
2023-02-25T04:39:56.086Z,0.3
2023-02-25T04:45:49.665Z,0.3
2023-02-25T04:51:43.748Z,0.2
2023-02-25T04:57:37.170Z,0.2
2023-02-25T05:03:29.732Z,0.2
2023-02-25T05:09:25.574Z,0.2
2023-02-25T05:15:18.599Z,0.2
2023-02-25T05:20:41.979Z,0.2
2023-02-25T05:26:34.942Z,0.2
2023-02-25T05:32:28.739Z,0.2
2023-02-25T05:38:07.300Z,0.2
2023-02-25T05:43:43.390Z,0.3
2023-02-25T05:49:37.305Z,0.4
2023-02-25T05:55:12.930Z,0.4
2023-02-25T06:00:50.868Z,0.6
2023-02-25T06:06:28.695Z,0.8
2023-02-25T06:11:49.898Z,0.9
2023-02-25T06:17:44.317Z,1.1
2023-02-25T06:23:21.857Z,1.3
2023-02-25T06:29:15.535Z,1.8
2023-02-25T06:34:54.560Z,2.4
2023-02-25T06:40:31.905Z,3.4
2023-02-25T06:46:26.160Z,4.3
2023-02-25T06:52:04.429Z,5.4
2023-02-25T06:57:41.275Z,6.6
2023-02-25T07:03:18.742Z,8.1
2023-02-25T07:09:14.448Z,9.4
2023-02-25T07:14:36.619Z,10.2
2023-02-25T07:19:59.404Z,10.7
2023-02-25T07:25:35.958Z,11.1
2023-02-25T07:31:29.314Z,11.6
2023-02-25T07:37:23.388Z,12.3
2023-02-25T07:43:15.886Z,13.3
2023-02-25T07:49:08.857Z,14.2
2023-02-25T07:55:02.183Z,14.6
2023-02-25T08:00:58.402Z,8.8
2023-02-25T08:06:52.581Z,24.2
2023-02-25T08:12:46.919Z,24.4
2023-02-25T08:18:39.883Z,24.4
2023-02-25T08:24:34.123Z,24.9
2023-02-25T08:30:27.170Z,25.4
2023-02-25T08:36:07.003Z,25.8
2023-02-25T08:42:03.082Z,26.4
2023-02-25T08:47:55.555Z,26.3
2023-02-25T08:53:48.812Z,25.2
2023-02-25T08:59:41.481Z,24.8
2023-02-25T09:05:36.962Z,24.4
2023-02-25T09:11:43.957Z,24.3
2023-02-25T09:17:20.993Z,24.1
2023-02-25T09:23:13.966Z,23.9
2023-02-25T09:29:06.468Z,23.8
2023-02-25T09:35:01.443Z,23.6
2023-02-25T09:40:53.027Z,23.4
2023-02-25T09:46:45.831Z,23.3
2023-02-25T09:52:26.527Z,23.3
2023-02-25T09:58:04.242Z,23.1
2023-02-25T10:03:43.388Z,23.1
2023-02-25T10:09:20.255Z,23
2023-02-25T10:14:58.071Z,23
2023-02-25T10:20:24.868Z,22.9
2023-02-25T10:26:01.620Z,22.9
2023-02-25T10:31:54.413Z,22.9
2023-02-25T10:37:47.266Z,22.9
2023-02-25T10:43:40.429Z,22.9
2023-02-25T10:49:33.382Z,22.8
2023-02-25T10:55:32.786Z,22.8
2023-02-25T11:01:25.813Z,22.8
2023-02-25T11:07:19.781Z,22.8
2023-02-25T11:13:13.846Z,22.9
2023-02-25T11:19:25.743Z,23
2023-02-25T11:25:19.062Z,22.9
2023-02-25T11:31:11.214Z,23
2023-02-25T11:37:09.402Z,22.6
2023-02-25T11:43:04.483Z,22.6
2023-02-25T11:48:57.894Z,22.6
2023-02-25T11:54:50.661Z,22.8
2023-02-25T12:00:12.323Z,22.9
2023-02-25T12:06:05.677Z,23.1
2023-02-25T12:12:12.581Z,23.3
2023-02-25T12:17:49.680Z,23.1
2023-02-25T12:23:42.866Z,23
2023-02-25T12:29:35.691Z,22.9
2023-02-25T12:35:28.498Z,22.9
2023-02-25T12:41:24.787Z,23.1
2023-02-25T12:47:18.708Z,23.4
2023-02-25T12:53:12.212Z,23.6
2023-02-25T12:58:50.337Z,23.9
2023-02-25T13:04:44.884Z,24.3
2023-02-25T13:10:37.784Z,25.1
2023-02-25T13:16:56.055Z,25.5
2023-02-25T13:22:49.925Z,25.4
2023-02-25T13:28:42.451Z,25.4
2023-02-25T13:34:36.669Z,25.3
2023-02-25T13:40:14.092Z,25.1
2023-02-25T13:46:06.242Z,25.1
2023-02-25T13:52:00.140Z,24.8
2023-02-25T13:57:55.273Z,24.6
2023-02-25T14:03:47.821Z,24.4
2023-02-25T14:09:39.890Z,24.3
2023-02-25T14:15:37.590Z,24.1
2023-02-25T14:21:31.308Z,24.1
2023-02-25T14:27:09.187Z,24
2023-02-25T14:32:48.267Z,24.1
2023-02-25T14:38:40.580Z,24.1
2023-02-25T14:44:34.190Z,24.1
2023-02-25T14:50:27.009Z,23.9
2023-02-25T14:56:19.066Z,23.7
2023-02-25T15:02:12.403Z,23.6
2023-02-25T15:08:07.751Z,23.6
2023-02-25T15:14:00.748Z,23.4
2023-02-25T15:19:54.167Z,23.2
2023-02-25T15:25:32.381Z,22.9
2023-02-25T15:31:24.683Z,22.9
2023-02-25T15:37:19.535Z,22.8
2023-02-25T15:43:11.725Z,22.9
2023-02-25T15:48:51.275Z,23.1
2023-02-25T15:54:29.368Z,22.6
2023-02-25T16:00:07.930Z,22.1
2023-02-25T16:06:05.626Z,21.4
2023-02-25T16:11:58.217Z,20.6
2023-02-25T16:17:52.144Z,20.1
2023-02-25T16:23:44.604Z,19.5
2023-02-25T16:29:37.482Z,19
2023-02-25T16:35:31.555Z,18.6
2023-02-25T16:41:13.297Z,18.1
2023-02-25T16:47:14.653Z,17.8
2023-02-25T16:53:08.724Z,17.4
2023-02-25T16:59:01.431Z,17.1
2023-02-25T17:04:39.524Z,16.8
2023-02-25T17:10:32.654Z,16.5
2023-02-25T17:16:25.921Z,16.2
2023-02-25T17:22:05.273Z,15.9
2023-02-25T17:27:58.704Z,15.8
2023-02-25T17:33:52.636Z,15.5
2023-02-25T17:39:48.814Z,15.3
2023-02-25T17:45:42.828Z,15.2
2023-02-25T17:51:36.721Z,15
2023-02-25T17:57:31.281Z,14.9
2023-02-25T18:03:27.066Z,14.8
2023-02-25T18:09:21.453Z,14.6
2023-02-25T18:15:15.879Z,14.5
2023-02-25T18:21:19.915Z,14.4
2023-02-25T18:27:13.553Z,14.3
2023-02-25T18:33:08.611Z,14.2
2023-02-25T18:38:48.843Z,14.2
2023-02-25T18:44:43.196Z,14.1
2023-02-25T18:50:38.372Z,14.1
2023-02-25T18:56:32.919Z,14
2023-02-25T19:02:10.594Z,13.9
2023-02-25T19:08:03.973Z,13.9
2023-02-25T19:13:58.157Z,13.9
2023-02-25T19:19:52.880Z,13.8
2023-02-25T19:25:45.288Z,13.8
2023-02-25T19:31:38.799Z,13.8
2023-02-25T19:37:18.468Z,13.7
2023-02-25T19:43:11.795Z,13.7
2023-02-25T19:49:05.523Z,13.6
2023-02-25T19:54:59.780Z,13.6
2023-02-25T20:00:54.274Z,13.6
2023-02-25T20:06:49.091Z,13.5
2023-02-25T20:12:42.224Z,13.5
2023-02-25T20:18:37.255Z,13.4
2023-02-25T20:24:33.598Z,13.4
2023-02-25T20:30:26.930Z,13.4
2023-02-25T20:36:08.009Z,13.4
2023-02-25T20:42:01.532Z,13.3
2023-02-25T20:47:57.238Z,13.3
2023-02-25T20:53:50.411Z,13.3
2023-02-25T20:59:43.912Z,13.3
2023-02-25T21:05:37.322Z,13.3
2023-02-25T21:11:32.128Z,13.3
2023-02-25T21:17:27.332Z,13.3
2023-02-25T21:23:20.015Z,13.3
2023-02-25T21:29:13.810Z,13.3
2023-02-25T21:35:10.058Z,13.3
2023-02-25T21:41:02.660Z,13.3
2023-02-25T21:46:55.716Z,13.3
2023-02-25T21:52:48.755Z,13.3
2023-02-25T21:58:40.998Z,13.3
2023-02-25T22:04:34.957Z,13.4
2023-02-25T22:10:28.220Z,13.3
2023-02-25T22:16:20.777Z,13.3
2023-02-25T22:22:14.984Z,13.4
2023-02-25T22:28:09.256Z,13.4
2023-02-25T22:34:02.430Z,13.3
2023-02-25T22:39:39.928Z,13.3
2023-02-25T22:45:32.961Z,13.3
2023-02-25T22:51:09.798Z,13.3
2023-02-25T22:57:02.017Z,13.3
2023-02-25T23:02:54.200Z,13.3
2023-02-25T23:09:00.602Z,13.3
2023-02-25T23:14:55.121Z,13.3
2023-02-25T23:20:48.320Z,13.3
2023-02-25T23:26:40.750Z,13.3
2023-02-25T23:32:33.278Z,13.3
2023-02-25T23:38:27.113Z,13.3
2023-02-25T23:44:21.431Z,13.3
2023-02-25T23:50:17.459Z,13.2
2023-02-25T23:56:11.202Z,13.2
